»·PEaware :: N15JG KEPH-KBFI

N15JG :: KEPH-KBFI

FLIGHT INFORMATION

Flight Status: Arrived
Operator: Privately registered:
United States
More flights under this callsign
Pilot: Anonymous 11047 (11047)
Aircraft: Unknown
(P32R)
More flights by this aircraft type
Origin: KEPH Ephrata Mun
United States
Destination: KBFI Boeing Field/King Co Intl
United States
More flights between these airports :: More routes between these airports
Route: +
File this flight plan on PilotEdge
Remarks:
Altitude:
(Current/Filed)
10,500ft
Speed:
(Current/Filed)
0kts
Departed: 24-Mar-18 09:07 AM
Arrived: 24-Mar-18 10:04 AM
Distance/Time
Traveled:
114nm/0:57
Distance/Time
To Go:
Arrived

Flight Plot

Page will automatically refresh every two minutes.

Flight plan parsing failed; only flown route is shown


Map Options




Map Legend


Flown Route
Filed Route
Departure Airport
Arrival Airport
Navaid (VOR, NDB)
Fix

Horizontal Profiles

Position Reports

Time Latitude Longitude Heading Altitude Ground
Speed
24-Mar-18 09:05 47.439737 -118.876169 260 10603ft 180kts
24-Mar-18 09:06 47.428669 -118.947578 261 10580ft 182kts
24-Mar-18 09:07 47.427650 -119.022337 269 10497ft 180kts
24-Mar-18 09:08 47.418670 -119.097094 261 10450ft 178kts
24-Mar-18 09:09 47.407702 -119.168547 259 10484ft 179kts
24-Mar-18 09:10 47.397492 -119.236405 261 10530ft 178kts
24-Mar-18 09:11 47.388763 -119.308033 264 10564ft 177kts
24-Mar-18 09:12 47.379392 -119.379740 263 10619ft 175kts
24-Mar-18 09:13 47.375145 -119.453254 275 10600ft 174kts
24-Mar-18 09:14 47.375088 -119.524988 270 10460ft 177kts
24-Mar-18 09:15 47.375316 -119.598675 273 10441ft 178kts
24-Mar-18 09:16 47.376578 -119.668250 270 10514ft 181kts
24-Mar-18 09:17 47.375415 -119.740716 271 10557ft 180kts
24-Mar-18 09:18 47.376376 -119.814174 270 10638ft 175kts
24-Mar-18 09:19 47.375716 -119.885323 274 10789ft 173kts
24-Mar-18 09:20 47.377246 -119.957308 273 10777ft 178kts
24-Mar-18 09:21 47.385873 -120.027839 283 10683ft 184kts
24-Mar-18 09:22 47.398943 -120.096638 278 10893ft 176kts
24-Mar-18 09:23 47.396708 -120.169872 269 10881ft 177kts
24-Mar-18 09:24 47.397273 -120.242587 278 10840ft 179kts
24-Mar-18 09:25 47.403802 -120.315701 279 10899ft 173kts
24-Mar-18 09:26 47.409107 -120.386147 275 10986ft 174kts
24-Mar-18 09:27 47.414045 -120.459388 277 10737ft 184kts
24-Mar-18 09:28 47.417402 -120.535153 276 10481ft 190kts
24-Mar-18 09:29 47.425038 -120.612352 281 10178ft 189kts
24-Mar-18 09:30 47.432695 -120.681900 278 10035ft 186kts
24-Mar-18 09:31 47.436268 -120.742525 274 10263ft 175kts
24-Mar-18 09:32 47.439217 -120.812214 275 10342ft 173kts
24-Mar-18 09:33 47.440511 -120.860720 272 10314ft 178kts
24-Mar-18 09:34 47.438852 -120.934523 274 10133ft 184kts
24-Mar-18 09:35 47.445665 -121.006604 280 10279ft 174kts
24-Mar-18 09:36 47.453237 -121.077491 281 10293ft 178kts
24-Mar-18 09:37 47.462086 -121.148867 280 10371ft 178kts
24-Mar-18 09:38 47.469821 -121.224243 276 10285ft 184kts
24-Mar-18 09:39 47.435414 -121.281703 241 10216ft 192kts
24-Mar-18 09:40 47.447846 -121.352554 299 10124ft 187kts
24-Mar-18 09:41 47.476227 -121.414603 306 10072ft 188kts
24-Mar-18 09:42 47.506434 -121.477227 300 9796ft 187kts
24-Mar-18 09:43 47.521738 -121.543934 277 8707ft 145kts
24-Mar-18 09:44 47.511444 -121.603234 244 7388ft 171kts
24-Mar-18 09:45 47.490703 -121.652850 238 5976ft 164kts
24-Mar-18 09:46 47.474878 -121.702389 256 4392ft 140kts
24-Mar-18 09:47 47.481354 -121.745982 304 3701ft 134kts
24-Mar-18 09:48 47.511568 -121.790250 302 3306ft 130kts
24-Mar-18 09:49 47.520927 -121.832112 280 3469ft 126kts
24-Mar-18 09:50 47.527851 -121.891853 273 3638ft 129kts
24-Mar-18 09:51 47.530700 -121.937448 278 3615ft 133kts
24-Mar-18 09:52 47.535158 -121.990989 270 3046ft 125kts
24-Mar-18 09:53 47.534335 -122.030341 263 2591ft 115kts
24-Mar-18 09:54 47.532445 -122.076932 271 2225ft 114kts
24-Mar-18 09:55 47.534280 -122.125813 269 2254ft 133kts
24-Mar-18 09:56 47.532716 -122.169060 268 1835ft 112kts
24-Mar-18 09:57 47.533805 -122.206543 272 1395ft 105kts
24-Mar-18 09:58 47.534538 -122.247217 262 1049ft 96kts
24-Mar-18 09:59 47.540393 -122.285887 325 790ft 107kts
24-Mar-18 10:00 47.565738 -122.305647 311 842ft 87kts
24-Mar-18 10:01 47.555347 -122.322614 154 505ft 96kts
24-Mar-18 10:02 47.535852 -122.305611 154 18ft 66kts
24-Mar-18 10:03 47.530834 -122.300727 61 18ft 0kts
24-Mar-18 10:04 47.532392 -122.300388 11 18ft 10kts
24-Mar-18 10:05 47.532523 -122.300572 241 18ft 0kts
24-Mar-18 10:06 47.532523 -122.300572 241 18ft 0kts
24-Mar-18 10:07 47.532523 -122.300572 241 18ft 0kts
24-Mar-18 10:10 47.532523 -122.300572 241 18ft 0kts
24-Mar-18 10:11 47.532523 -122.300572 241 18ft 0kts
24-Mar-18 10:12 47.532523 -122.300572 241 18ft 0kts
24-Mar-18 10:13 47.532523 -122.300572 241 18ft 0kts
24-Mar-18 10:14 47.532523 -122.300572 241 18ft 0kts
24-Mar-18 10:15 47.532523 -122.300572 241 18ft 0kts
24-Mar-18 10:16 47.532524 -122.300572 241 18ft 0kts

Navigation Log

Ident Type
Flight plan parsing failed, navigation log unavailable